Time;durP1;ratioP1;P1;durP2;ratioP2;P2;SDS_P1;SDS_P2;PMS_P1;PMS_P2;Temp;Humidity;BMP_temperature;BMP_pressure;BME280_temperature;BME280_humidity;BME280_pressure;Samples;Min_cycle;Max_cycle;Signal;HPM_P1;HPM_P2
2023/08/27 00:00:40;;;;;;;;;;;;;;;15.15;91.96;100964.81;5024344;28;19912;-58
2023/08/27 00:03:06;;;;;;;;;;;;;;;15.06;92.35;100961.28;5023580;28;19965;-59
2023/08/27 00:05:31;;;;;;;;;;;;;;;14.98;94.51;100957.72;5021498;28;19906;-59
2023/08/27 00:07:56;;;;;;;;;;;;;;;14.93;93.97;100956.78;5026714;28;19905;-59
2023/08/27 00:10:21;;;;;;;;;;;;;;;14.88;95.46;100958.53;5024242;28;19902;-59
2023/08/27 00:12:47;;;;;;;;;;;;;;;14.78;95.31;100942.69;5025258;28;19960;-59
2023/08/27 00:15:12;;;;;;;;;;;;;;;14.72;95.13;100937.41;5024522;28;20091;-58
2023/08/27 00:17:37;;;;;;;;;;;;;;;14.73;97.37;100925.16;5023942;28;19909;-58
2023/08/27 00:20:11;;;;;;;;;;;;;;;14.68;95.35;100924.25;5023950;28;19908;-59
2023/08/27 00:22:37;;;;;;;;;;;;;;;14.60;96.82;100913.69;5022281;28;19961;-59
2023/08/27 00:25:02;;;;;;;;;;;;;;;14.50;97.96;100896.13;5022729;28;19912;-59
2023/08/27 00:27:27;;;;;;;;;;;;;;;14.42;98.53;100886.44;5023333;28;20102;-59
2023/08/27 00:29:53;;;;;;;;;;;;;;;14.38;97.93;100882.03;5023868;28;19902;-59
2023/08/27 00:32:18;;;;;;;;;;;;;;;14.42;98.58;100885.56;5023845;28;19901;-59
2023/08/27 00:34:43;;;;;;;;;;;;;;;14.44;97.91;100879.47;5023482;28;20100;-59
2023/08/27 00:37:08;;;;;;;;;;;;;;;14.52;98.67;100882.13;5017813;28;20086;-59
2023/08/27 00:39:35;;;;;;;;;;;;;;;14.58;97.96;100878.69;5027308;28;19909;-59
2023/08/27 00:42:01;;;;;;;;;;;;;;;14.61;97.83;100870.84;5026623;28;19901;-59
2023/08/27 00:44:27;;;;;;;;;;;;;;;14.65;97.05;100875.28;5022302;28;19912;-59
2023/08/27 00:46:52;;;;;;;;;;;;;;;14.64;96.11;100863.03;5027224;28;19912;-59
2023/08/27 00:49:18;;;;;;;;;;;;;;;14.60;96.42;100863.88;5027177;28;19902;-59
2023/08/27 00:51:44;;;;;;;;;;;;;;;14.59;96.56;100872.59;5026746;28;19969;-59
2023/08/27 00:54:10;;;;;;;;;;;;;;;14.56;97.11;100859.47;5026396;28;20065;-59
2023/08/27 00:56:35;;;;;;;;;;;;;;;14.58;97.26;100858.59;5027108;28;19993;-59
2023/08/27 00:59:01;;;;;;;;;;;;;;;14.61;96.62;100865.59;5026488;28;19924;-58
2023/08/27 01:01:27;;;;;;;;;;;;;;;14.60;96.99;100861.25;5027351;28;19909;-59
2023/08/27 01:03:52;;;;;;;;;;;;;;;14.60;96.46;100859.47;5026334;28;19912;-59
2023/08/27 01:06:18;;;;;;;;;;;;;;;14.61;96.98;100849.84;5026161;28;19905;-58
2023/08/27 01:09:01;;;;;;;;;;;;;;;14.61;96.88;100857.72;5026799;28;19902;-59
2023/08/27 01:11:53;;;;;;;;;;;;;;;14.62;97.03;100859.53;5026849;28;19917;-59
2023/08/27 01:14:19;;;;;;;;;;;;;;;14.62;97.65;100848.16;5019753;28;19912;-59
2023/08/27 01:16:46;;;;;;;;;;;;;;;14.60;97.19;100842.88;5022986;28;19948;-59
2023/08/27 01:19:14;;;;;;;;;;;;;;;14.59;97.42;100841.97;5026889;28;20261;-59
2023/08/27 01:21:41;;;;;;;;;;;;;;;14.59;96.79;100843.75;5026105;28;19905;-58
2023/08/27 01:24:06;;;;;;;;;;;;;;;14.59;96.93;100843.75;5025483;28;19913;-59
2023/08/27 01:26:34;;;;;;;;;;;;;;;14.58;96.55;100841.97;5026781;28;19980;-58
2023/08/27 01:29:06;;;;;;;;;;;;;;;14.48;96.55;100842.78;5026429;28;19944;-58
2023/08/27 01:31:34;;;;;;;;;;;;;;;14.40;96.48;100851.47;5026277;28;19972;-59
2023/08/27 01:34:05;;;;;;;;;;;;;;;14.38;96.91;100845.34;5024258;28;19913;-59
2023/08/27 01:36:34;;;;;;;;;;;;;;;14.37;96.83;100842.72;5017195;28;19937;-59
2023/08/27 01:38:59;;;;;;;;;;;;;;;14.35;96.84;100849.66;5026434;28;19901;-58
2023/08/27 01:41:25;;;;;;;;;;;;;;;14.32;96.84;100841.78;5026301;28;19927;-59
2023/08/27 01:43:50;;;;;;;;;;;;;;;14.32;96.52;100839.16;5025383;28;20094;-59
2023/08/27 01:46:15;;;;;;;;;;;;;;;14.29;96.20;100839.13;5024748;28;19922;-58
2023/08/27 01:48:40;;;;;;;;;;;;;;;14.23;96.78;100848.69;5019778;28;20202;-58
2023/08/27 01:51:06;;;;;;;;;;;;;;;14.18;96.25;100849.50;5025279;28;19976;-58
2023/08/27 01:53:32;;;;;;;;;;;;;;;14.14;96.74;100832.91;5024911;28;19902;-58
2023/08/27 01:55:58;;;;;;;;;;;;;;;14.15;97.09;100832.03;5023209;28;19917;-58
2023/08/27 01:58:23;;;;;;;;;;;;;;;14.15;96.99;100836.38;5024921;28;20090;-58
2023/08/27 02:00:49;;;;;;;;;;;;;;;14.13;97.96;100828.50;5025214;28;19906;-58
2023/08/27 02:03:15;;;;;;;;;;;;;;;14.12;97.09;100829.41;5017828;28;20155;-58
2023/08/27 02:05:40;;;;;;;;;;;;;;;14.10;98.50;100823.25;5024474;28;19917;-58
2023/08/27 02:08:05;;;;;;;;;;;;;;;14.12;99.79;100828.50;5021253;28;19948;-58
2023/08/27 02:10:30;;;;;;;;;;;;;;;14.11;98.44;100830.25;5024849;28;20123;-58
2023/08/27 02:12:55;;;;;;;;;;;;;;;14.07;98.65;100831.97;5029432;28;20063;-58
2023/08/27 02:15:20;;;;;;;;;;;;;;;14.08;99.76;100832.84;5018843;28;19980;-57
2023/08/27 02:17:46;;;;;;;;;;;;;;;14.05;99.62;100831.09;5015185;28;20143;-57
2023/08/27 02:20:11;;;;;;;;;;;;;;;14.08;100.00;100835.47;5016830;28;19948;-58
2023/08/27 02:22:36;;;;;;;;;;;;;;;14.10;99.79;100833.72;5023382;28;20147;-58
2023/08/27 02:25:02;;;;;;;;;;;;;;;14.07;100.00;100831.97;5019608;28;19937;-58
2023/08/27 02:27:27;;;;;;;;;;;;;;;14.03;100.00;100831.91;5022562;28;20173;-58
2023/08/27 02:29:52;;;;;;;;;;;;;;;14.02;100.00;100833.69;5023243;28;19905;-58
2023/08/27 02:32:17;;;;;;;;;;;;;;;14.02;100.00;100840.63;5023186;28;20158;-58
2023/08/27 02:34:43;;;;;;;;;;;;;;;13.99;100.00;100836.28;5024923;28;19963;-58
2023/08/27 02:37:08;;;;;;;;;;;;;;;13.98;99.57;100834.50;5010927;28;20051;-58
2023/08/27 02:39:34;;;;;;;;;;;;;;;13.98;100.00;100844.13;5016319;28;20051;-59
2023/08/27 02:41:59;;;;;;;;;;;;;;;13.99;100.00;100832.75;5024737;28;20108;-59
2023/08/27 02:44:24;;;;;;;;;;;;;;;13.99;100.00;100838.88;5021022;28;19914;-60
2023/08/27 02:46:49;;;;;;;;;;;;;;;13.99;100.00;100841.50;5020230;28;20143;-60
2023/08/27 02:49:14;;;;;;;;;;;;;;;13.98;100.00;100837.13;5023434;28;19906;-59
2023/08/27 02:51:39;;;;;;;;;;;;;;;13.97;100.00;100852.84;5024496;28;19901;-59
2023/08/27 02:54:05;;;;;;;;;;;;;;;13.99;100.00;100853.72;5023992;28;19952;-59
2023/08/27 02:56:30;;;;;;;;;;;;;;;13.97;100.00;100848.47;5021881;28;19905;-59
2023/08/27 02:58:56;;;;;;;;;;;;;;;13.95;100.00;100842.34;5019606;28;19914;-59
2023/08/27 03:01:21;;;;;;;;;;;;;;;13.97;100.00;100850.22;5023656;28;19913;-59
2023/08/27 03:03:46;;;;;;;;;;;;;;;13.94;100.00;100837.09;5023705;28;19936;-59
2023/08/27 03:06:12;;;;;;;;;;;;;;;13.94;100.00;100835.34;5017258;28;19902;-59
2023/08/27 03:08:37;;;;;;;;;;;;;;;13.96;100.00;100840.59;5019863;28;19912;-59
2023/08/27 03:11:02;;;;;;;;;;;;;;;13.97;100.00;100844.97;5021335;28;19909;-59
2023/08/27 03:13:27;;;;;;;;;;;;;;;13.99;100.00;100845.84;5022504;28;19954;-59
2023/08/27 03:15:52;;;;;;;;;;;;;;;14.00;100.00;100835.38;5020293;28;19917;-59
2023/08/27 03:18:18;;;;;;;;;;;;;;;14.03;100.00;100851.16;5024672;28;19940;-59
2023/08/27 03:20:43;;;;;;;;;;;;;;;14.05;100.00;100849.41;5024619;28;19901;-59
2023/08/27 03:23:08;;;;;;;;;;;;;;;14.08;100.00;100844.19;5023872;28;19913;-59
2023/08/27 03:25:33;;;;;;;;;;;;;;;14.11;100.00;100848.59;5024460;28;20194;-60
2023/08/27 03:27:58;;;;;;;;;;;;;;;14.10;100.00;100844.22;5023666;28;20040;-60
2023/08/27 03:30:23;;;;;;;;;;;;;;;14.11;100.00;100852.94;5024536;28;19906;-60
2023/08/27 03:32:49;;;;;;;;;;;;;;;14.12;100.00;100857.31;5023315;28;19910;-60
2023/08/27 03:35:16;;;;;;;;;;;;;;;14.10;100.00;100857.31;5018247;28;20154;-60
2023/08/27 03:37:41;;;;;;;;;;;;;;;14.09;100.00;100856.44;5024567;28;19917;-60
2023/08/27 03:40:09;;;;;;;;;;;;;;;14.04;100.00;100847.66;5024508;28;19948;-60
2023/08/27 03:42:34;;;;;;;;;;;;;;;14.02;100.00;100853.72;5022849;28;19917;-61
2023/08/27 03:45:00;;;;;;;;;;;;;;;13.92;100.00;100842.31;5016061;28;19929;-60
2023/08/27 03:47:26;;;;;;;;;;;;;;;13.89;100.00;100837.06;5024349;28;20163;-61
2023/08/27 03:49:51;;;;;;;;;;;;;;;13.88;100.00;100830.91;5021651;28;19981;-61
2023/08/27 03:52:16;;;;;;;;;;;;;;;13.90;100.00;100823.06;5015317;28;19905;-61
2023/08/27 03:54:41;;;;;;;;;;;;;;;13.91;100.00;100824.84;5023730;28;20143;-60
2023/08/27 03:57:06;;;;;;;;;;;;;;;13.92;100.00;100829.22;5018294;28;19924;-60
2023/08/27 03:59:31;;;;;;;;;;;;;;;13.92;100.00;100821.34;5012277;28;20083;-61
2023/08/27 04:01:57;;;;;;;;;;;;;;;13.94;100.00;100813.50;5018779;28;19916;-61
2023/08/27 04:04:22;;;;;;;;;;;;;;;13.93;100.00;100817.84;5012773;28;19933;-61
2023/08/27 04:06:47;;;;;;;;;;;;;;;13.93;100.00;100798.66;5020301;28;19964;-61
2023/08/27 04:09:12;;;;;;;;;;;;;;;13.93;100.00;100807.38;5023517;28;19933;-61
2023/08/27 04:11:38;;;;;;;;;;;;;;;13.94;100.00;100806.53;5017550;28;20189;-61
2023/08/27 04:14:04;;;;;;;;;;;;;;;13.96;100.00;100810.06;5025530;28;19905;-61
2023/08/27 04:16:30;;;;;;;;;;;;;;;13.99;100.00;100815.31;5016410;28;19945;-61
2023/08/27 04:18:55;;;;;;;;;;;;;;;14.01;100.00;100802.22;5024752;28;19910;-61
2023/08/27 04:21:20;;;;;;;;;;;;;;;14.00;100.00;100808.31;5025843;28;19960;-61
2023/08/27 04:23:45;;;;;;;;;;;;;;;13.97;100.00;100822.25;5020515;28;19992;-61
2023/08/27 04:26:11;;;;;;;;;;;;;;;13.97;100.00;100824.00;5023605;28;20008;-61
2023/08/27 04:28:37;;;;;;;;;;;;;;;13.98;100.00;100825.78;5025454;28;20062;-61
2023/08/27 04:31:02;;;;;;;;;;;;;;;13.93;100.00;100820.47;5018186;28;19936;-61
2023/08/27 04:33:28;;;;;;;;;;;;;;;13.91;100.00;100816.97;5026839;28;19912;-61
2023/08/27 04:35:53;;;;;;;;;;;;;;;13.93;100.00;100812.63;5026348;28;19917;-61
2023/08/27 04:38:19;;;;;;;;;;;;;;;13.93;100.00;100801.28;5027534;28;19936;-61
2023/08/27 04:40:49;;;;;;;;;;;;;;;13.93;100.00;100810.00;5026195;28;19940;-61
2023/08/27 04:43:14;;;;;;;;;;;;;;;13.91;100.00;100814.34;5024770;28;19933;-61
2023/08/27 04:45:39;;;;;;;;;;;;;;;13.93;100.00;100812.63;5024957;28;20238;-61
2023/08/27 04:48:05;;;;;;;;;;;;;;;13.93;100.00;100815.22;5026650;28;19916;-61
2023/08/27 04:50:30;;;;;;;;;;;;;;;13.90;100.00;100818.72;5024796;28;19915;-61
2023/08/27 04:52:55;;;;;;;;;;;;;;;13.87;100.00;100823.03;5023990;28;19906;-61
2023/08/27 04:55:20;;;;;;;;;;;;;;;13.87;100.00;100828.28;5021929;28;19905;-61
2023/08/27 04:57:45;;;;;;;;;;;;;;;13.84;100.00;100828.25;5019970;28;19908;-61
2023/08/27 05:00:20;;;;;;;;;;;;;;;13.83;100.00;100834.34;5027126;28;19933;-61
2023/08/27 05:02:45;;;;;;;;;;;;;;;13.80;100.00;100843.06;5025287;28;19905;-61
2023/08/27 05:05:11;;;;;;;;;;;;;;;13.80;100.00;100844.78;5026285;28;19929;-61
2023/08/27 05:07:37;;;;;;;;;;;;;;;13.82;100.00;100846.56;5024777;28;19961;-61
2023/08/27 05:10:02;;;;;;;;;;;;;;;13.84;100.00;100849.22;5027021;28;20044;-61
2023/08/27 05:12:27;;;;;;;;;;;;;;;13.86;100.00;100852.72;5018053;28;19981;-62
2023/08/27 05:14:53;;;;;;;;;;;;;;;13.86;100.00;100853.59;5025053;28;19917;-61
2023/08/27 05:17:18;;;;;;;;;;;;;;;13.87;100.00;100852.72;5024611;28;19909;-61
2023/08/27 05:19:43;;;;;;;;;;;;;;;13.88;100.00;100841.38;5026166;28;20112;-61
2023/08/27 05:22:08;;;;;;;;;;;;;;;13.89;100.00;100839.66;5026353;28;19909;-61
2023/08/27 05:24:34;;;;;;;;;;;;;;;13.90;100.00;100838.78;5025034;28;19906;-61
2023/08/27 05:27:00;;;;;;;;;;;;;;;13.88;100.00;100841.38;5026080;28;19910;-61
2023/08/27 05:29:25;;;;;;;;;;;;;;;13.88;100.00;100844.00;5026552;28;19901;-61
2023/08/27 05:31:50;;;;;;;;;;;;;;;13.88;100.00;100835.28;5025056;28;19913;-61
2023/08/27 05:34:15;;;;;;;;;;;;;;;13.89;100.00;100832.69;5025903;28;20143;-61
2023/08/27 05:36:41;;;;;;;;;;;;;;;13.89;100.00;100826.56;5026617;28;19897;-61
2023/08/27 05:39:06;;;;;;;;;;;;;;;13.90;100.00;100833.53;5026318;28;19902;-61
2023/08/27 05:41:31;;;;;;;;;;;;;;;13.91;100.00;100827.44;5025427;28;20136;-61
2023/08/27 05:43:56;;;;;;;;;;;;;;;13.93;100.00;100843.19;5012687;28;20059;-61
2023/08/27 05:46:22;;;;;;;;;;;;;;;13.95;100.00;100836.19;5025526;28;19912;-61
2023/08/27 05:48:47;;;;;;;;;;;;;;;13.95;100.00;100847.56;5025491;28;20165;-61
2023/08/27 05:51:12;;;;;;;;;;;;;;;13.96;100.00;100844.09;5025699;28;19909;-61
2023/08/27 05:53:38;;;;;;;;;;;;;;;13.96;100.00;100838.88;5013810;28;20131;-61
2023/08/27 05:56:03;;;;;;;;;;;;;;;13.96;100.00;100832.72;5024283;28;19924;-61
2023/08/27 05:58:29;;;;;;;;;;;;;;;14.00;100.00;100834.53;5011899;28;19906;-61
2023/08/27 06:00:54;;;;;;;;;;;;;;;13.99;100.00;100828.41;5025469;28;19913;-61
2023/08/27 06:03:20;;;;;;;;;;;;;;;13.99;100.00;100830.13;5023747;28;20194;-61
2023/08/27 06:05:45;;;;;;;;;;;;;;;14.02;100.00;100827.53;5015515;28;19999;-61
2023/08/27 06:08:10;;;;;;;;;;;;;;;14.04;100.00;100826.69;5019049;28;19969;-61
2023/08/27 06:10:35;;;;;;;;;;;;;;;14.07;100.00;100829.34;5023825;28;19952;-61
2023/08/27 06:13:00;;;;;;;;;;;;;;;14.11;100.00;100822.41;5020791;28;19912;-60
2023/08/27 06:15:29;;;;;;;;;;;;;;;14.14;100.00;100816.31;5015870;28;20078;-61
2023/08/27 06:17:54;;;;;;;;;;;;;;;14.18;100.00;100818.06;5014212;28;19906;-60
2023/08/27 06:20:19;;;;;;;;;;;;;;;14.19;100.00;100810.25;5018768;28;19948;-60
2023/08/27 06:22:44;;;;;;;;;;;;;;;14.19;100.00;100814.59;5023801;28;19968;-60
2023/08/27 06:25:10;;;;;;;;;;;;;;;14.20;100.00;100816.34;5020158;28;19905;-60
2023/08/27 06:27:35;;;;;;;;;;;;;;;14.20;100.00;100817.22;5022635;28;19976;-60
2023/08/27 06:30:02;;;;;;;;;;;;;;;14.17;100.00;100811.09;5023013;28;21430;-61
2023/08/27 06:32:28;;;;;;;;;;;;;;;14.15;100.00;100802.31;5022589;28;20143;-60
2023/08/27 06:34:54;;;;;;;;;;;;;;;14.14;100.00;100811.06;5023334;28;19905;-60
2023/08/27 06:37:20;;;;;;;;;;;;;;;14.16;100.00;100806.72;5015234;28;19936;-60
2023/08/27 06:39:45;;;;;;;;;;;;;;;14.16;100.00;100811.94;5025163;28;19902;-60
2023/08/27 06:42:11;;;;;;;;;;;;;;;14.19;100.00;100818.13;5024766;28;20221;-60
2023/08/27 06:44:36;;;;;;;;;;;;;;;14.20;100.00;100806.75;5025514;28;19933;-60
2023/08/27 06:47:01;;;;;;;;;;;;;;;14.25;100.00;100809.38;5019556;28;19910;-61
2023/08/27 06:49:27;;;;;;;;;;;;;;;14.30;100.00;100807.69;5024551;28;19913;-60
2023/08/27 06:51:52;;;;;;;;;;;;;;;14.36;100.00;100810.34;5024328;28;19964;-60
2023/08/27 06:54:17;;;;;;;;;;;;;;;14.39;100.00;100813.00;5024421;28;19905;-60
2023/08/27 06:56:43;;;;;;;;;;;;;;;14.43;100.00;100820.03;5015652;28;19910;-60
2023/08/27 06:59:10;;;;;;;;;;;;;;;14.47;100.00;100820.03;5020798;28;19910;-61
2023/08/27 07:01:35;;;;;;;;;;;;;;;14.52;100.00;100815.72;5014032;28;19905;-60
2023/08/27 07:04:00;;;;;;;;;;;;;;;14.57;100.00;100816.63;5024684;28;19909;-60
2023/08/27 07:06:25;;;;;;;;;;;;;;;14.63;100.00;100815.81;5021382;28;19905;-60
2023/08/27 07:08:52;;;;;;;;;;;;;;;14.68;100.00;100820.22;5020523;28;19905;-60
2023/08/27 07:11:17;;;;;;;;;;;;;;;14.73;100.00;100828.09;5027359;28;20052;-60
2023/08/27 07:13:42;;;;;;;;;;;;;;;14.79;100.00;100825.56;5024613;28;19897;-60
2023/08/27 07:16:07;;;;;;;;;;;;;;;14.84;100.00;100830.81;5020642;28;20208;-60
2023/08/27 07:18:33;;;;;;;;;;;;;;;14.90;100.00;100828.22;5027269;28;20050;-60
2023/08/27 07:20:58;;;;;;;;;;;;;;;14.93;100.00;100820.34;5024410;28;20094;-60
2023/08/27 07:23:23;;;;;;;;;;;;;;;14.99;100.00;100824.75;5018564;28;19917;-60
2023/08/27 07:25:49;;;;;;;;;;;;;;;15.00;100.00;100824.78;5024014;28;19912;-60
2023/08/27 07:28:14;;;;;;;;;;;;;;;15.05;100.00;100819.56;5024268;28;20040;-60
2023/08/27 07:30:39;;;;;;;;;;;;;;;15.15;100.00;100820.47;5023033;28;19901;-60
2023/08/27 07:33:06;;;;;;;;;;;;;;;15.11;100.00;100820.44;5023712;28;19906;-60
2023/08/27 07:35:31;;;;;;;;;;;;;;;15.14;100.00;100819.59;5016814;28;19937;-60
2023/08/27 07:37:57;;;;;;;;;;;;;;;15.20;100.00;100824.88;5020663;28;19952;-60
2023/08/27 07:40:23;;;;;;;;;;;;;;;15.26;100.00;100826.63;5020786;28;19906;-60
2023/08/27 07:42:49;;;;;;;;;;;;;;;15.33;100.00;100825.78;5022609;28;20131;-60
2023/08/27 07:45:14;;;;;;;;;;;;;;;15.41;100.00;100837.22;5022381;28;19913;-60
2023/08/27 07:47:40;;;;;;;;;;;;;;;15.54;100.00;100832.88;5023355;28;19914;-61
2023/08/27 07:50:06;;;;;;;;;;;;;;;15.63;100.00;100829.41;5025849;28;19906;-60
2023/08/27 07:52:31;;;;;;;;;;;;;;;15.76;100.00;100828.53;5023801;28;20015;-60
2023/08/27 07:54:57;;;;;;;;;;;;;;;15.84;100.00;100820.69;5022918;28;19914;-60
2023/08/27 07:57:22;;;;;;;;;;;;;;;15.83;100.00;100821.59;5032579;28;19905;-60
2023/08/27 07:59:48;;;;;;;;;;;;;;;15.90;100.00;100822.47;5025019;28;19902;-60
2023/08/27 08:02:13;;;;;;;;;;;;;;;16.03;100.00;100826.84;5033747;28;19995;-60
2023/08/27 08:04:39;;;;;;;;;;;;;;;16.08;100.00;100821.63;5031995;28;19901;-60
2023/08/27 08:07:04;;;;;;;;;;;;;;;16.21;100.00;100814.63;5030374;28;19910;-59
2023/08/27 08:09:29;;;;;;;;;;;;;;;16.27;100.00;100807.59;5031503;28;19933;-59
2023/08/27 08:11:54;;;;;;;;;;;;;;;16.39;100.00;100813.72;5034106;28;20113;-60
2023/08/27 08:14:19;;;;;;;;;;;;;;;16.45;100.00;100816.31;5029101;28;19901;-60
2023/08/27 08:16:45;;;;;;;;;;;;;;;16.40;100.00;100818.97;5034971;28;20226;-59
2023/08/27 08:19:11;;;;;;;;;;;;;;;16.38;100.00;100810.22;5034938;28;19905;-60
2023/08/27 08:21:36;;;;;;;;;;;;;;;16.39;100.00;100816.34;5027122;28;19902;-60
2023/08/27 08:24:01;;;;;;;;;;;;;;;16.42;100.00;100811.94;5031594;28;19913;-60
2023/08/27 08:26:26;;;;;;;;;;;;;;;16.51;100.00;100811.06;5029725;28;19913;-59
2023/08/27 08:28:52;;;;;;;;;;;;;;;16.54;100.00;100820.69;5027417;28;19921;-59
2023/08/27 08:31:17;;;;;;;;;;;;;;;16.66;100.00;100826.81;5028474;28;19920;-59
2023/08/27 08:33:42;;;;;;;;;;;;;;;16.80;100.00;100829.44;5024760;28;20186;-59
2023/08/27 08:36:07;;;;;;;;;;;;;;;16.97;100.00;100823.28;5025708;28;20196;-59
2023/08/27 08:38:33;;;;;;;;;;;;;;;17.10;100.00;100826.75;5026014;28;19913;-59
2023/08/27 08:41:00;;;;;;;;;;;;;;;17.27;100.00;100829.31;5026848;28;19909;-59
2023/08/27 08:43:34;;;;;;;;;;;;;;;17.38;99.51;100838.06;5025308;28;19909;-59
2023/08/27 08:46:03;;;;;;;;;;;;;;;17.50;99.01;100840.63;5024513;28;19980;-59
2023/08/27 08:48:30;;;;;;;;;;;;;;;17.68;98.21;100837.00;5023630;28;19919;-59
2023/08/27 08:50:55;;;;;;;;;;;;;;;17.89;96.73;100820.16;5025189;28;19905;-59
2023/08/27 08:53:23;;;;;;;;;;;;;;;18.02;93.89;100826.25;5025648;28;19976;-59
2023/08/27 08:55:50;;;;;;;;;;;;;;;18.05;93.73;100826.25;5026971;28;19948;-59
2023/08/27 08:58:17;;;;;;;;;;;;;;;18.04;90.80;100828.88;5027530;28;19905;-59
2023/08/27 09:00:43;;;;;;;;;;;;;;;17.93;91.80;100825.44;5019315;28;19905;-58
2023/08/27 09:03:09;;;;;;;;;;;;;;;17.89;92.70;100814.91;5022456;28;19906;-59
2023/08/27 09:05:36;;;;;;;;;;;;;;;17.83;89.63;100808.78;5027766;28;19906;-59
2023/08/27 09:08:03;;;;;;;;;;;;;;;17.76;90.25;100818.50;5024506;28;19951;-58
2023/08/27 09:10:29;;;;;;;;;;;;;;;17.78;89.35;100808.81;5025869;28;19913;-58
2023/08/27 09:12:57;;;;;;;;;;;;;;;17.78;88.85;100808.81;5021682;28;19910;-58
2023/08/27 09:15:22;;;;;;;;;;;;;;;17.83;89.46;100807.03;5027362;28;19913;-58
2023/08/27 09:17:47;;;;;;;;;;;;;;;17.84;88.03;100808.81;5024399;28;20094;-58
2023/08/27 09:20:13;;;;;;;;;;;;;;;17.80;87.40;100804.44;5033269;28;19921;-58
2023/08/27 09:22:38;;;;;;;;;;;;;;;17.92;89.20;100797.38;5021479;28;19916;-58
2023/08/27 09:25:04;;;;;;;;;;;;;;;18.18;89.24;100789.22;5023979;28;19944;-58
2023/08/27 09:27:30;;;;;;;;;;;;;;;18.54;85.99;100790.63;5023568;28;19924;-58
2023/08/27 09:29:59;;;;;;;;;;;;;;;18.70;86.06;100787.84;5024653;28;19912;-58
2023/08/27 09:32:24;;;;;;;;;;;;;;;18.84;83.65;100785.94;5020460;28;19920;-58
2023/08/27 09:34:56;;;;;;;;;;;;;;;18.92;83.75;100775.31;5020853;28;20255;-58
2023/08/27 09:37:21;;;;;;;;;;;;;;;19.08;84.41;100778.63;5018085;28;19948;-59
2023/08/27 09:39:48;;;;;;;;;;;;;;;19.33;80.06;100780.94;5019726;28;19917;-59
2023/08/27 09:42:14;;;;;;;;;;;;;;;19.41;80.32;100771.16;5015701;28;19914;-59
2023/08/27 09:44:47;;;;;;;;;;;;;;;19.46;82.27;100769.28;5021460;28;19913;-59
2023/08/27 09:47:12;;;;;;;;;;;;;;;19.40;81.32;100769.41;5022596;28;19913;-58
2023/08/27 09:49:41;;;;;;;;;;;;;;;19.31;81.66;100764.25;5016380;28;19947;-58
2023/08/27 09:52:07;;;;;;;;;;;;;;;19.34;80.95;100770.34;5015862;28;19944;-59
2023/08/27 09:54:32;;;;;;;;;;;;;;;19.33;80.54;100757.16;5023600;28;20139;-59
2023/08/27 09:56:59;;;;;;;;;;;;;;;19.35;81.26;100766.81;5025459;28;19925;-58
2023/08/27 09:59:25;;;;;;;;;;;;;;;19.67;77.83;100765.47;5027363;28;19972;-59
2023/08/27 10:01:51;;;;;;;;;;;;;;;19.61;80.35;100760.25;5023117;28;20151;-59
2023/08/27 10:04:17;;;;;;;;;;;;;;;19.80;77.20;100759.13;5025802;28;19905;-59
2023/08/27 10:06:42;;;;;;;;;;;;;;;19.94;73.91;100765.94;5025870;28;20063;-60
2023/08/27 10:09:08;;;;;;;;;;;;;;;19.66;75.63;100765.50;5031256;28;20151;-59
2023/08/27 10:11:36;;;;;;;;;;;;;;;19.64;77.97;100768.16;5018744;28;19906;-60
2023/08/27 10:14:03;;;;;;;;;;;;;;;19.81;75.48;100767.91;5023211;28;19918;-59
2023/08/27 10:16:29;;;;;;;;;;;;;;;19.59;76.75;100768.22;5022580;28;19956;-59
2023/08/27 10:18:55;;;;;;;;;;;;;;;19.67;78.67;100770.75;5015600;28;19932;-59
2023/08/27 10:21:20;;;;;;;;;;;;;;;19.89;77.75;100773.09;5012035;28;20084;-59
2023/08/27 10:23:46;;;;;;;;;;;;;;;20.11;78.17;100763.88;5009801;28;19921;-59
2023/08/27 10:26:12;;;;;;;;;;;;;;;20.17;77.33;100764.69;5020585;28;19940;-59
2023/08/27 10:28:37;;;;;;;;;;;;;;;20.10;75.11;100764.81;5010008;28;20000;-59
2023/08/27 10:31:05;;;;;;;;;;;;;;;20.00;76.30;100764.97;5015048;28;19905;-59
2023/08/27 10:33:31;;;;;;;;;;;;;;;19.95;75.49;100760.63;5025770;28;19906;-60
2023/08/27 10:35:59;;;;;;;;;;;;;;;20.08;73.42;100763.94;5026023;28;19936;-59
2023/08/27 10:38:28;;;;;;;;;;;;;;;20.05;75.69;100756.06;5019925;28;19905;-60
2023/08/27 10:40:53;;;;;;;;;;;;;;;19.99;73.58;100764.13;5024827;28;19909;-60
2023/08/27 10:43:19;;;;;;;;;;;;;;;19.95;73.63;100768.56;5014010;28;19902;-60
2023/08/27 10:45:45;;;;;;;;;;;;;;;19.77;75.06;100772.38;5024175;28;19984;-60
2023/08/27 10:48:16;;;;;;;;;;;;;;;19.68;74.69;100771.63;5020738;28;19980;-60
2023/08/27 10:50:58;;;;;;;;;;;;;;;19.63;74.33;100775.19;5021432;28;19969;-60
2023/08/27 10:53:24;;;;;;;;;;;;;;;19.71;74.64;100775.09;5014043;28;19905;-60
2023/08/27 10:55:50;;;;;;;;;;;;;;;19.95;75.02;100768.56;5015705;28;19908;-60
2023/08/27 10:58:17;;;;;;;;;;;;;;;20.12;73.35;100772.72;5022359;28;20132;-60
2023/08/27 11:01:02;;;;;;;;;;;;;;;20.17;73.08;100762.06;5023751;28;20158;-60
2023/08/27 11:03:27;;;;;;;;;;;;;;;20.08;70.23;100774.53;5024553;28;19933;-60
2023/08/27 11:06:11;;;;;;;;;;;;;;;20.17;72.32;100765.56;5023836;28;20135;-60
2023/08/27 11:08:37;;;;;;;;;;;;;;;20.40;72.46;100764.28;5031436;28;20206;-60
2023/08/27 11:11:12;;;;;;;;;;;;;;;20.66;71.42;100761.13;5024066;28;19901;-60
2023/08/27 11:13:37;;;;;;;;;;;;;;;20.61;69.76;100768.28;5024062;28;19924;-60
2023/08/27 11:16:10;;;;;;;;;;;;;;;20.51;70.68;100772.91;5018763;28;20051;-60
2023/08/27 11:18:48;;;;;;;;;;;;;;;20.41;70.11;100771.34;5024041;28;19901;-60
2023/08/27 11:21:22;;;;;;;;;;;;;;;20.35;66.42;100784.66;5014040;28;19910;-60
2023/08/27 11:24:06;;;;;;;;;;;;;;;20.13;62.52;100795.59;5016597;28;19921;-60
2023/08/27 11:26:32;;;;;;;;;;;;;;;19.63;60.99;100821.91;5021758;28;20229;-60
2023/08/27 11:28:57;;;;;;;;;;;;;;;18.84;63.82;100838.72;5014958;28;19990;-60
2023/08/27 11:31:23;;;;;;;;;;;;;;;18.16;68.28;100847.28;5013446;28;19909;-60
2023/08/27 11:33:48;;;;;;;;;;;;;;;17.85;71.39;100849.19;5018435;28;19906;-60
2023/08/27 11:36:13;;;;;;;;;;;;;;;17.54;72.58;100849.38;5021772;28;19924;-59
2023/08/27 11:38:39;;;;;;;;;;;;;;;17.37;74.14;100845.06;5017902;28;19909;-60
2023/08/27 11:41:04;;;;;;;;;;;;;;;17.64;77.58;100844.91;5017346;28;20094;-60
2023/08/27 11:43:29;;;;;;;;;;;;;;;17.97;80.27;100835.09;5004893;28;19912;-60
2023/08/27 11:45:54;;;;;;;;;;;;;;;18.18;78.75;100847.25;5012846;28;20093;-60
2023/08/27 11:48:19;;;;;;;;;;;;;;;18.07;77.66;100835.03;5006911;28;20213;-60
2023/08/27 11:50:45;;;;;;;;;;;;;;;18.11;73.86;100848.19;5012511;28;20139;-59
2023/08/27 11:53:11;;;;;;;;;;;;;;;17.84;73.23;100843.06;5010857;28;19906;-60
2023/08/27 11:55:36;;;;;;;;;;;;;;;17.51;77.14;100849.38;5014791;28;19909;-60
2023/08/27 11:58:02;;;;;;;;;;;;;;;17.41;77.49;100850.31;5012977;28;19897;-60
2023/08/27 12:00:29;;;;;;;;;;;;;;;17.13;77.44;100846.06;5010831;28;19910;-60
2023/08/27 12:02:55;;;;;;;;;;;;;;;17.00;78.00;100849.59;5015634;28;19904;-60
2023/08/27 12:05:20;;;;;;;;;;;;;;;16.85;79.10;100848.72;5015612;28;19940;-60
2023/08/27 12:07:45;;;;;;;;;;;;;;;16.71;79.61;100849.63;5023409;28;19905;-60
2023/08/27 12:10:13;;;;;;;;;;;;;;;16.54;79.58;100840.00;5019381;28;19909;-60
2023/08/27 12:12:39;;;;;;;;;;;;;;;16.43;78.85;100845.25;5020117;28;19905;-60
2023/08/27 12:15:04;;;;;;;;;;;;;;;16.33;77.72;100867.19;5027693;28;19952;-60
2023/08/27 12:17:30;;;;;;;;;;;;;;;16.06;79.56;100875.91;5028003;28;19905;-60
2023/08/27 12:19:55;;;;;;;;;;;;;;;15.97;78.93;100871.53;5027141;28;20007;-60
2023/08/27 12:22:20;;;;;;;;;;;;;;;15.84;80.65;100885.53;5029221;28;20433;-60
2023/08/27 12:24:46;;;;;;;;;;;;;;;15.83;81.86;100882.03;5026291;28;19905;-60